Time;durP1;ratioP1;P1;durP2;ratioP2;P2;SDS_P1;SDS_P2;PMS_P1;PMS_P2;Temp;Humidity;BMP_temperature;BMP_pressure;BME280_temperature;BME280_humidity;BME280_pressure;Samples;Min_cycle;Max_cycle;Signal;HPM_P1;HPM_P2
2022/08/17 00:02:21;;;;;;;23.17;19.90;;;;;;;21.80;100.00;166274.63;4993560;28;20019;-63
2022/08/17 00:04:46;;;;;;;18.30;16.48;;;;;;;21.85;100.00;166288.25;4991026;28;20042;-62
2022/08/17 00:07:11;;;;;;;18.45;16.30;;;;;;;21.84;100.00;166285.50;4993131;28;20501;-64
2022/08/17 00:09:37;;;;;;;20.38;17.10;;;;;;;21.85;100.00;166286.84;4991894;28;20096;-63
2022/08/17 00:12:03;;;;;;;19.42;14.90;;;;;;;21.84;100.00;166285.50;4993413;28;20030;-63
2022/08/17 00:14:29;;;;;;;20.15;16.20;;;;;;;21.83;100.00;166282.78;4991446;28;20506;-63
2022/08/17 00:16:54;;;;;;;16.02;14.52;;;;;;;21.83;100.00;166282.78;4993865;28;20069;-63
2022/08/17 00:19:23;;;;;;;26.77;17.67;;;;;;;21.84;100.00;166285.50;4991728;28;20042;-63
2022/08/17 00:21:51;;;;;;;18.05;16.15;;;;;;;21.81;100.00;166277.34;4993338;28;20445;-63
2022/08/17 00:24:17;;;;;;;16.85;15.30;;;;;;;21.75;100.00;166259.66;4991736;28;20093;-63
2022/08/17 00:26:44;;;;;;;22.17;16.35;;;;;;;21.73;100.00;166255.59;4993269;28;20026;-62
2022/08/17 00:29:09;;;;;;;22.85;17.05;;;;;;;21.72;100.00;166252.88;4993633;28;20129;-62
2022/08/17 00:31:35;;;;;;;23.50;18.25;;;;;;;21.73;100.00;166255.59;5012560;28;20041;-62
2022/08/17 00:34:01;;;;;;;20.23;15.75;;;;;;;21.74;100.00;166258.31;5010647;28;20022;-63
2022/08/17 00:36:26;;;;;;;19.35;16.60;;;;;;;21.77;100.00;166265.09;5012445;28;20032;-63
2022/08/17 00:38:52;;;;;;;20.40;16.67;;;;;;;21.73;100.00;166255.59;5009990;28;20030;-63
2022/08/17 00:41:22;;;;;;;19.27;17.50;;;;;;;21.73;100.00;166255.59;4991271;28;20070;-63
2022/08/17 00:44:02;;;;;;;18.52;16.60;;;;;;;21.69;100.00;166244.75;4992673;28;20026;-63
2022/08/17 00:46:32;;;;;;;19.88;17.75;;;;;;;21.65;100.00;166233.84;4991440;28;20524;-63
2022/08/17 00:48:58;;;;;;;21.67;17.35;;;;;;;21.62;100.00;166227.06;4991447;28;20545;-63
2022/08/17 00:51:37;;;;;;;26.17;17.85;;;;;;;21.52;100.00;166199.91;4990970;28;20026;-63
2022/08/17 00:54:12;;;;;;;19.70;17.42;;;;;;;21.52;100.00;166201.22;4991400;28;20065;-63
2022/08/17 00:56:43;;;;;;;22.52;18.85;;;;;;;21.49;100.00;166193.06;4992788;28;20104;-63
2022/08/17 00:59:12;;;;;;;20.42;18.30;;;;;;;21.47;100.00;166186.28;4990436;28;20023;-62
2022/08/17 01:01:37;;;;;;;21.23;19.08;;;;;;;21.43;100.00;166175.44;4992212;28;20561;-64
2022/08/17 01:04:04;;;;;;;20.42;18.13;;;;;;;21.43;100.00;166176.78;4991497;28;20097;-63
2022/08/17 01:06:30;;;;;;;21.20;18.00;;;;;;;21.44;100.00;166179.50;4992283;28;20081;-62
2022/08/17 01:08:58;;;;;;;19.70;18.00;;;;;;;21.47;100.00;166187.66;4990739;28;20041;-62
2022/08/17 01:11:24;;;;;;;21.90;19.15;;;;;;;21.51;100.00;166197.16;4992056;28;20037;-62
2022/08/17 01:13:50;;;;;;;23.88;19.77;;;;;;;21.56;100.00;166212.06;4992192;28;20455;-63
2022/08/17 01:16:25;;;;;;;23.35;19.58;;;;;;;21.61;100.00;166224.34;4989977;28;20046;-62
2022/08/17 01:18:54;;;;;;;20.33;18.13;;;;;;;21.59;100.00;166217.56;4992355;28;20030;-63
2022/08/17 01:21:40;;;;;;;23.30;21.02;;;;;;;21.59;100.00;166217.56;4990705;28;20038;-63
2022/08/17 01:24:06;;;;;;;24.75;22.17;;;;;;;21.47;100.00;166187.66;4991033;28;20044;-63
2022/08/17 01:26:33;;;;;;;25.85;21.58;;;;;;;21.39;100.00;166165.94;4992042;28;20026;-62
2022/08/17 01:29:00;;;;;;;25.98;23.40;;;;;;;21.27;100.00;166134.69;4990329;28;20502;-62
2022/08/17 01:31:31;;;;;;;25.25;22.67;;;;;;;21.27;100.00;166134.69;4991594;28;20030;-63
2022/08/17 01:33:58;;;;;;;31.35;23.60;;;;;;;21.08;100.00;166084.44;4990522;28;20045;-64
2022/08/17 01:36:24;;;;;;;24.65;22.02;;;;;;;21.04;100.00;166074.94;4991304;28;20106;-63
2022/08/17 01:38:49;;;;;;;30.38;25.13;;;;;;;21.02;100.00;166068.16;4992172;28;20082;-64
2022/08/17 01:41:15;;;;;;;28.90;25.95;;;;;;;21.00;100.00;166064.03;4990152;28;20042;-62
2022/08/17 01:43:53;;;;;;;30.88;27.65;;;;;;;21.01;100.00;166065.44;4991429;28;20061;-62
2022/08/17 01:46:32;;;;;;;33.07;24.27;;;;;;;21.01;100.00;166065.44;4989757;28;20116;-62
2022/08/17 01:48:58;;;;;;;27.52;24.75;;;;;;;21.04;100.00;166073.53;4990947;28;20453;-62
2022/08/17 01:51:31;;;;;;;27.85;24.73;;;;;;;21.07;100.00;166081.72;4990789;28;20482;-62
2022/08/17 01:53:59;;;;;;;27.92;24.08;;;;;;;21.08;100.00;166084.44;4990984;28;20041;-63
2022/08/17 01:56:27;;;;;;;28.65;24.98;;;;;;;21.09;100.00;166087.16;5011119;28;20026;-62
2022/08/17 01:58:53;;;;;;;29.63;26.30;;;;;;;21.09;100.00;166087.16;4991256;28;20026;-63
2022/08/17 02:01:21;;;;;;;30.67;25.77;;;;;;;21.04;100.00;166074.94;4990334;28;20521;-62
2022/08/17 02:03:46;;;;;;;;;;;;;;;21.07;100.00;166081.72;4992365;28;20110;-62
2022/08/17 02:06:12;;;;;;;31.13;27.17;;;;;;;21.01;100.00;166066.75;4989795;28;20000;-62
2022/08/17 02:08:37;;;;;;;32.83;28.63;;;;;;;21.04;100.00;166073.53;4991055;28;20084;-62
2022/08/17 02:11:08;;;;;;;30.63;24.63;;;;;;;21.02;100.00;166068.16;4990353;28;20698;-62
2022/08/17 02:13:34;;;;;;;31.35;25.63;;;;;;;21.03;100.00;166070.88;4990968;28;20445;-62
2022/08/17 02:16:00;;;;;;;27.27;24.40;;;;;;;20.98;100.00;166058.66;4990074;28;20034;-64
2022/08/17 02:18:26;;;;;;;34.25;24.77;;;;;;;20.91;100.00;166040.97;4991338;28;20451;-64
2022/08/17 02:20:53;;;;;;;24.40;21.48;;;;;;;20.94;100.00;166047.75;4989672;28;20461;-63
2022/08/17 02:23:21;;;;;;;24.17;21.60;;;;;;;20.95;100.00;166049.16;4991424;28;20058;-63
2022/08/17 02:25:47;;;;;;;28.42;23.35;;;;;;;20.92;100.00;166043.69;4986553;28;20031;-62
2022/08/17 02:28:13;;;;;;;22.92;20.63;;;;;;;20.91;100.00;166040.97;4991057;28;20061;-62
2022/08/17 02:30:39;;;;;;;23.08;20.65;;;;;;;20.86;100.00;166027.41;4989712;28;20573;-63
2022/08/17 02:33:05;;;;;;;21.15;18.98;;;;;;;20.85;100.00;166024.69;4991319;28;20037;-62
2022/08/17 02:35:30;;;;;;;19.95;17.92;;;;;;;20.85;100.00;166023.34;4989197;28;20046;-61
2022/08/17 02:37:56;;;;;;;19.52;17.50;;;;;;;20.81;100.00;166013.84;4991745;28;20030;-63
2022/08/17 02:40:23;;;;;;;16.67;14.88;;;;;;;20.81;100.00;166013.84;4989522;28;20391;-63
2022/08/17 02:42:48;;;;;;;22.13;18.88;;;;;;;20.78;100.00;166005.69;4991043;28;20022;-65
2022/08/17 02:45:19;;;;;;;20.08;18.17;;;;;;;20.71;100.00;165986.63;5000805;28;20061;-64
2022/08/17 02:47:45;;;;;;;23.30;17.08;;;;;;;20.69;100.00;165981.19;5010726;28;20401;-63
2022/08/17 02:50:14;;;;;;;28.75;19.85;;;;;;;20.64;100.00;165967.63;5005490;28;20038;-62
2022/08/17 02:52:41;;;;;;;21.38;18.60;;;;;;;20.55;100.00;165945.91;4991019;28;20030;-61
2022/08/17 02:55:11;;;;;;;20.57;18.63;;;;;;;20.51;100.00;165935.06;4989740;28;20042;-62
2022/08/17 02:57:37;;;;;;;19.33;17.42;;;;;;;20.48;100.00;165926.91;4992184;28;20449;-62
2022/08/17 03:00:10;;;;;;;19.92;17.50;;;;;;;20.41;100.00;165907.88;4993344;28;20045;-61
2022/08/17 03:02:37;;;;;;;20.42;18.30;;;;;;;20.36;100.00;165894.34;4994140;28;20428;-61
2022/08/17 03:05:03;;;;;;;21.67;19.33;;;;;;;20.29;100.00;165878.00;4992449;28;20129;-61
2022/08/17 03:07:29;;;;;;;24.88;21.65;;;;;;;20.27;100.00;165871.22;4994327;28;20109;-61
2022/08/17 03:09:55;;;;;;;21.33;19.17;;;;;;;20.25;100.00;165867.16;4992671;28;20058;-61
2022/08/17 03:12:20;;;;;;;23.63;18.55;;;;;;;20.21;100.00;165856.31;4993524;28;20026;-61
2022/08/17 03:14:45;;;;;;;24.30;19.02;;;;;;;20.17;100.00;165845.44;4992074;28;20053;-61
2022/08/17 03:17:11;;;;;;;23.33;20.98;;;;;;;20.11;100.00;165829.16;4994034;28;20540;-61
2022/08/17 03:19:36;;;;;;;23.80;20.80;;;;;;;20.07;100.00;165819.66;4992467;28;20082;-62
2022/08/17 03:22:05;;;;;;;27.98;22.17;;;;;;;20.04;100.00;165810.16;4994545;28;20026;-61
2022/08/17 03:24:31;;;;;;;22.92;20.50;;;;;;;20.00;100.00;165800.66;4992409;28;20410;-61
2022/08/17 03:26:57;;;;;;;25.52;22.67;;;;;;;19.99;100.00;165796.59;4993821;28;20030;-60
2022/08/17 03:29:22;;;;;;;26.00;23.33;;;;;;;19.96;100.00;165791.16;4991938;28;20042;-59
2022/08/17 03:31:48;;;;;;;25.90;23.15;;;;;;;19.92;100.00;165780.28;4993583;28;20092;-61
2022/08/17 03:34:14;;;;;;;27.67;24.98;;;;;;;19.90;100.00;165774.88;4991758;28;20117;-61
2022/08/17 03:36:40;;;;;;;27.55;24.80;;;;;;;19.85;100.00;165761.28;4993466;28;20022;-60
2022/08/17 03:39:05;;;;;;;26.75;23.90;;;;;;;19.87;100.00;165766.72;4992329;28;20029;-61
2022/08/17 03:41:31;;;;;;;30.35;25.98;;;;;;;19.84;100.00;165758.63;4993827;28;20026;-62
2022/08/17 03:43:56;;;;;;;31.83;26.80;;;;;;;19.83;100.00;165755.84;4992166;28;20389;-61
2022/08/17 03:57:21;;;;;;;32.03;28.58;;;;;;;-146.58;100.00;69501.63;4992953;28;20586;-62
2022/08/17 03:59:47;;;;;;;29.58;26.67;;;;;;;-146.58;100.00;69501.63;4991771;28;20042;-63
2022/08/17 04:02:20;;;;;;;33.47;29.85;;;;;;;-146.58;100.00;69501.63;4993603;28;20077;-63
2022/08/17 04:04:49;;;;;;;34.90;29.80;;;;;;;-146.58;100.00;69501.63;4988733;28;20057;-63
2022/08/17 04:07:15;;;;;;;32.55;28.92;;;;;;;-146.58;100.00;69501.63;4993176;28;20041;-62
2022/08/17 04:09:41;;;;;;;31.45;28.50;;;;;;;-146.58;100.00;69501.63;4990356;28;20046;-64
2022/08/17 04:12:07;;;;;;;34.35;30.60;;;;;;;-146.58;100.00;69501.63;4991508;28;20030;-63
2022/08/17 04:14:37;;;;;;;31.98;28.70;;;;;;;-146.58;100.00;69501.63;4991208;28;20038;-63
2022/08/17 04:17:03;;;;;;;38.53;29.80;;;;;;;-146.58;100.00;69501.63;4993435;28;20033;-63
2022/08/17 04:19:28;;;;;;;33.97;30.63;;;;;;;-146.58;100.00;69501.63;4991431;28;20071;-63
2022/08/17 04:21:53;;;;;;;34.00;30.40;;;;;;;-146.58;100.00;69501.63;4993334;28;20030;-63
2022/08/17 04:24:19;;;;;;;33.40;30.05;;;;;;;-146.58;100.00;69501.63;4991359;28;20094;-63
2022/08/17 04:26:44;;;;;;;35.80;32.28;;;;;;;-146.58;100.00;69501.63;4973526;28;20033;-63
2022/08/17 04:29:10;;;;;;;33.45;30.02;;;;;;;-146.58;100.00;69501.63;4980565;28;20406;-63
2022/08/17 04:31:35;;;;;;;33.60;30.20;;;;;;;-146.58;100.00;69501.63;5012799;28;20088;-63
2022/08/17 04:34:00;;;;;;;33.08;29.35;;;;;;;-146.58;100.00;69501.63;5010854;28;20018;-64
2022/08/17 04:36:27;;;;;;;34.53;31.02;;;;;;;-146.58;100.00;69501.63;5012386;28;20026;-63
2022/08/17 04:38:52;;;;;;;34.63;30.77;;;;;;;-146.58;100.00;69501.63;5004349;28;20441;-63
2022/08/17 04:44:03;;;;;;;38.58;32.45;;;;;;;-146.58;100.00;69501.63;4988498;28;20029;-63
2022/08/17 04:46:32;;;;;;;36.10;32.67;;;;;;;-146.58;100.00;69501.63;4992387;28;20021;-63
2022/08/17 04:48:58;;;;;;;38.75;35.08;;;;;;;-146.58;100.00;69501.63;4990602;28;20034;-63
2022/08/17 04:51:36;;;;;;;37.88;33.83;;;;;;;-146.58;100.00;69501.63;4992149;28;20026;-62
2022/08/17 04:54:05;;;;;;;36.08;32.38;;;;;;;-146.58;100.00;69501.63;4988507;28;20037;-63
2022/08/17 04:56:32;;;;;;;35.28;31.48;;;;;;;-146.58;100.00;69501.63;4991452;28;20034;-63
2022/08/17 04:59:02;;;;;;;37.47;33.42;;;;;;;-146.58;100.00;69501.63;4991103;28;20030;-63
2022/08/17 05:01:31;;;;;;;35.65;31.33;;;;;;;-146.58;100.00;69501.63;4991905;28;20025;-63
2022/08/17 05:03:59;;;;;;;36.80;32.90;;;;;;;-146.58;100.00;69501.63;4990214;28;20049;-63
2022/08/17 05:06:26;;;;;;;41.67;34.30;;;;;;;-146.58;100.00;69501.63;4989684;28;20022;-63
2022/08/17 05:08:52;;;;;;;34.70;31.08;;;;;;;-146.58;100.00;69501.63;4992150;28;20029;-63
2022/08/17 05:11:17;;;;;;;35.92;30.75;;;;;;;-146.58;100.00;69501.63;4988862;28;20038;-61
2022/08/17 05:13:43;;;;;;;38.03;33.97;;;;;;;-146.58;100.00;69501.63;4991518;28;20105;-59
2022/08/17 05:16:09;;;;;;;38.47;34.42;;;;;;;-146.58;100.00;69501.63;4989941;28;20041;-61
2022/08/17 05:18:36;;;;;;;40.08;35.95;;;;;;;-146.58;100.00;69501.63;4991361;28;20065;-61
2022/08/17 05:21:01;;;;;;;40.40;34.63;;;;;;;-146.58;100.00;69501.63;4990539;28;20045;-60
2022/08/17 05:23:27;;;;;;;39.80;35.40;;;;;;;-146.58;100.00;69501.63;4991941;28;20030;-60
2022/08/17 05:25:55;;;;;;;40.70;36.47;;;;;;;-146.58;100.00;69501.63;4990525;28;20042;-60
2022/08/17 05:28:21;;;;;;;39.38;33.20;;;;;;;-146.58;100.00;69501.63;4991798;28;20026;-60
2022/08/17 05:30:48;;;;;;;37.38;33.58;;;;;;;-146.58;100.00;69501.63;4990111;28;20042;-60
2022/08/17 05:33:17;;;;;;;37.90;33.92;;;;;;;-146.58;100.00;69501.63;4989979;28;20486;-61
2022/08/17 05:35:48;;;;;;;36.60;32.33;;;;;;;-146.58;100.00;69501.63;4987376;28;20049;-63
2022/08/17 05:38:15;;;;;;;38.92;34.80;;;;;;;-146.58;100.00;69501.63;4991852;28;20377;-60
2022/08/17 05:40:42;;;;;;;39.35;34.83;;;;;;;-146.58;100.00;69501.63;4989371;28;20099;-61
2022/08/17 05:43:20;;;;;;;40.00;35.58;;;;;;;-146.58;100.00;69501.63;4991705;28;20022;-60
2022/08/17 05:46:25;;;;;;;36.88;33.28;;;;;;;-146.58;100.00;69501.63;4987845;28;20076;-61
2022/08/17 05:48:54;;;;;;;37.70;33.65;;;;;;;-146.58;100.00;69501.63;4991011;28;20077;-61
2022/08/17 05:51:39;;;;;;;36.70;33.00;;;;;;;-146.58;100.00;69501.63;4989636;28;20113;-61
2022/08/17 05:54:27;;;;;;;38.83;34.75;;;;;;;-146.58;100.00;69501.63;4989612;28;20042;-62
2022/08/17 05:57:12;;;;;;;40.50;36.33;;;;;;;-146.58;100.00;69501.63;4989076;28;20030;-61
2022/08/17 06:00:03;;;;;;;40.03;36.08;;;;;;;-146.58;100.00;69501.63;4990114;28;20042;-62
2022/08/17 06:03:08;;;;;;;37.20;32.70;;;;;;;-146.58;100.00;69501.63;4991460;28;20433;-62
2022/08/17 06:06:08;;;;;;;38.38;34.42;;;;;;;-146.58;100.00;69501.63;4989526;28;20137;-62
2022/08/17 06:09:19;;;;;;;35.95;32.10;;;;;;;-146.58;100.00;69501.63;4991261;28;20022;-62
2022/08/17 06:12:13;;;;;;;35.70;31.95;;;;;;;-146.58;100.00;69501.63;4967294;28;20078;-62
2022/08/17 06:14:52;;;;;;;33.78;30.15;;;;;;;-146.58;100.00;69501.63;4981669;28;20151;-63
2022/08/17 06:17:21;;;;;;;33.60;30.08;;;;;;;-146.58;100.00;69501.63;4991451;28;20113;-61
2022/08/17 06:19:53;;;;;;;34.65;31.17;;;;;;;-146.58;100.00;69501.63;4989293;28;20034;-61
2022/08/17 06:22:22;;;;;;;34.35;30.85;;;;;;;-146.58;100.00;69501.63;4991294;28;20108;-60
2022/08/17 06:24:55;;;;;;;34.90;31.25;;;;;;;-146.58;100.00;69501.63;4989312;28;20039;-61
2022/08/17 06:27:32;;;;;;;36.83;29.23;;;;;;;-146.58;100.00;69501.63;4991953;28;20023;-60
2022/08/17 06:30:24;;;;;;;31.95;28.35;;;;;;;-146.58;100.00;69501.63;4989802;28;20537;-62
2022/08/17 06:32:52;;;;;;;28.45;25.55;;;;;;;-146.58;100.00;69501.63;4988512;28;20121;-62
2022/08/17 06:35:51;;;;;;;28.13;25.23;;;;;;;-146.58;100.00;69501.63;4997790;28;20067;-62
2022/08/17 06:38:46;;;;;;;27.85;24.40;;;;;;;-146.58;100.00;69501.63;4998591;28;20390;-61
2022/08/17 06:41:23;;;;;;;27.35;24.40;;;;;;;-146.58;100.00;69501.63;4945998;28;20063;-62
2022/08/17 06:44:22;;;;;;;28.02;23.92;;;;;;;-146.58;100.00;69501.63;4956372;29;20029;-61
2022/08/17 06:46:56;;;;;;;30.13;23.33;;;;;;;-146.58;100.00;69501.63;4954238;29;20035;-62
2022/08/17 06:49:27;;;;;;;26.02;23.27;;;;;;;-146.58;100.00;69501.63;4954792;28;20405;-62
2022/08/17 06:51:59;;;;;;;24.48;22.02;;;;;;;-146.58;100.00;69501.63;4965413;28;20035;-63
2022/08/17 06:54:30;;;;;;;24.48;21.88;;;;;;;-146.58;100.00;69501.63;4977658;28;20497;-62
2022/08/17 06:57:05;;;;;;;24.65;19.58;;;;;;;-146.58;100.00;69501.63;4995076;28;20030;-62
2022/08/17 06:59:41;;;;;;;24.52;21.95;;;;;;;-146.58;100.00;69501.63;4993056;28;20490;-62
2022/08/17 07:02:14;;;;;;;22.95;20.40;;;;;;;-146.58;100.00;69501.63;4994625;28;20397;-62
2022/08/17 07:04:40;;;;;;;20.98;18.50;;;;;;;-146.58;100.00;69501.63;4992503;28;20058;-61
2022/08/17 07:09:57;;;;;;;21.35;19.25;;;;;;;-146.58;100.00;69501.63;4993419;28;20461;-60
2022/08/17 07:12:36;;;;;;;20.95;18.90;;;;;;;-146.58;100.00;69501.63;4994253;28;20058;-60
2022/08/17 07:15:19;;;;;;;20.90;17.80;;;;;;;-146.58;100.00;69501.63;4993272;28;20042;-61
2022/08/17 07:17:46;;;;;;;20.75;18.85;;;;;;;-146.58;100.00;69501.63;4994318;28;20026;-59
2022/08/17 07:20:16;;;;;;;19.20;16.88;;;;;;;-146.58;100.00;69501.63;4993248;28;20116;-60
2022/08/17 07:22:57;;;;;;;20.25;17.90;;;;;;;-146.58;100.00;69501.63;4994686;28;20022;-60
2022/08/17 07:25:23;;;;;;;18.02;16.15;;;;;;;-146.58;100.00;69501.63;4992540;28;20042;-60
2022/08/17 07:27:52;;;;;;;21.10;17.15;;;;;;;-146.58;100.00;69501.63;4994543;28;20379;-61
2022/08/17 07:30:23;;;;;;;18.55;16.60;;;;;;;-146.58;100.00;69501.63;4992932;28;20050;-60
2022/08/17 07:32:58;;;;;;;18.27;14.95;;;;;;;-146.58;100.00;69501.63;4993798;28;20040;-60
2022/08/17 07:35:29;;;;;;;17.08;15.50;;;;;;;-146.58;100.00;69501.63;4992820;28;20039;-60
2022/08/17 07:38:13;;;;;;;19.85;17.63;;;;;;;-146.58;100.00;69501.63;4994114;28;20096;-60
2022/08/17 07:40:44;;;;;;;18.75;16.85;;;;;;;-146.58;100.00;69501.63;4992248;28;20034;-60
2022/08/17 07:43:22;;;;;;;23.17;17.08;;;;;;;-146.58;100.00;69501.63;4993622;28;20101;-60
2022/08/17 07:48:48;;;;;;;31.77;20.27;;;;;;;-146.58;100.00;69501.63;4993703;28;20101;-60
2022/08/17 07:51:27;;;;;;;19.95;18.08;;;;;;;-146.58;100.00;69501.63;4992514;28;20042;-60
2022/08/17 07:53:55;;;;;;;20.67;17.15;;;;;;;-146.58;100.00;69501.63;4993641;28;20030;-60
2022/08/17 07:57:08;;;;;;;20.65;18.67;;;;;;;-146.58;100.00;69501.63;4992290;28;20035;-60
2022/08/17 07:59:37;;;;;;;19.63;16.52;;;;;;;-146.58;100.00;69501.63;4988488;28;20049;-60
2022/08/17 08:02:21;;;;;;;19.05;17.33;;;;;;;-146.58;100.00;69501.63;4993500;28;20030;-60
2022/08/17 08:05:22;;;;;;;23.33;19.48;;;;;;;-146.58;100.00;69501.63;4992623;28;20042;-60
2022/08/17 08:07:53;;;;;;;24.02;20.15;;;;;;;-146.58;100.00;69501.63;4994094;28;20126;-60
2022/08/17 08:10:39;;;;;;;24.75;22.13;;;;;;;-146.58;100.00;69501.63;4992093;28;20045;-60
2022/08/17 08:13:27;;;;;;;25.63;22.35;;;;;;;-146.58;100.00;69501.63;4990711;28;20033;-60
2022/08/17 08:15:54;;;;;;;;;;;;;;;-146.58;100.00;69501.63;4997431;28;20061;-60
2022/08/17 08:18:39;;;;;;;24.80;20.55;;;;;;;-146.58;100.00;69501.63;5012860;28;19909;-60
2022/08/17 08:21:18;;;;;;;23.98;20.38;;;;;;;-146.58;100.00;69501.63;4972643;28;20574;-60
2022/08/17 08:23:56;;;;;;;22.05;19.83;;;;;;;-146.58;100.00;69501.63;4981653;28;20014;-60
2022/08/17 08:26:30;;;;;;;;;;;;;;;-146.58;100.00;69501.63;4992416;28;20129;-60
2022/08/17 08:29:17;;;;;;;18.50;16.60;;;;;;;-146.58;100.00;69501.63;4992065;28;19920;-60
2022/08/17 08:32:10;;;;;;;26.97;19.80;;;;;;;-146.58;100.00;69501.63;5011929;28;20033;-60
2022/08/17 08:35:26;;;;;;;17.95;16.05;;;;;;;-146.58;100.00;69501.63;5011090;28;20045;-60
2022/08/17 08:38:00;;;;;;;46.58;26.52;;;;;;;-146.58;100.00;69501.63;5000446;28;20065;-60
2022/08/17 08:40:32;;;;;;;30.67;19.33;;;;;;;-146.58;100.00;69501.63;5011092;28;20053;-60
2022/08/17 08:43:21;;;;;;;22.38;17.45;;;;;;;-146.58;100.00;69501.63;5012957;28;20025;-60
2022/08/17 08:46:02;;;;;;;22.10;18.60;;;;;;;-146.58;100.00;69501.63;5010940;28;20042;-60
2022/08/17 08:49:00;;;;;;;22.38;16.92;;;;;;;-146.58;100.00;69501.63;5012614;28;20401;-60
2022/08/17 08:51:35;;;;;;;38.42;17.42;;;;;;;-146.58;100.00;69501.63;5011264;28;20057;-60
2022/08/17 08:54:00;;;;;;;21.05;16.10;;;;;;;-146.58;100.00;69501.63;5010756;28;20034;-60
2022/08/17 08:56:46;;;;;;;29.00;18.20;;;;;;;-146.58;100.00;69501.63;5011756;28;20117;-60
2022/08/17 08:59:37;;;;;;;18.92;16.90;;;;;;;-146.58;100.00;69501.63;5010891;28;20489;-60
2022/08/17 09:02:17;;;;;;;26.33;17.08;;;;;;;-146.58;100.00;69501.63;5012200;28;20029;-60
2022/08/17 09:04:42;;;;;;;34.40;14.48;;;;;;;-146.58;100.00;69501.63;5010791;28;20123;-60
2022/08/17 09:07:32;;;;;;;22.80;15.27;;;;;;;-146.58;100.00;69501.63;5012139;28;20112;-60
2022/08/17 09:10:24;;;;;;;17.23;15.50;;;;;;;-146.58;100.00;69501.63;5010846;28;20042;-60
2022/08/17 09:13:09;;;;;;;19.23;17.10;;;;;;;-146.58;100.00;69501.63;5012128;28;20033;-60
2022/08/17 09:15:54;;;;;;;32.00;18.00;;;;;;;-146.58;100.00;69501.63;5009876;28;20053;-60
2022/08/17 09:18:34;;;;;;;19.02;17.10;;;;;;;-146.58;100.00;69501.63;5012427;28;20037;-60
2022/08/17 09:21:08;;;;;;;24.73;20.52;;;;;;;-146.58;100.00;69501.63;5010606;28;20081;-60
2022/08/17 09:23:48;;;;;;;22.00;17.13;;;;;;;-146.58;100.00;69501.63;5011533;28;20072;-60
2022/08/17 09:26:22;;;;;;;27.73;20.33;;;;;;;-146.58;100.00;69501.63;5010467;28;20045;-60
2022/08/17 09:28:59;;;;;;;23.02;20.70;;;;;;;-146.58;100.00;69501.63;5011649;28;20547;-60
2022/08/17 09:31:34;;;;;;;20.33;17.33;;;;;;;-146.58;100.00;69501.63;5010059;28;20045;-60
2022/08/17 09:34:08;;;;;;;23.05;16.15;;;;;;;-146.58;100.00;69501.63;5010342;28;20056;-60
2022/08/17 09:36:42;;;;;;;23.50;19.45;;;;;;;-146.58;100.00;69501.63;5003092;28;20018;-60
2022/08/17 09:39:15;;;;;;;29.58;21.63;;;;;;;-146.58;100.00;69501.63;4997321;28;20022;-60
2022/08/17 09:42:07;;;;;;;26.95;21.83;;;;;;;-146.58;100.00;69501.63;4991379;28;20040;-60
2022/08/17 09:44:56;;;;;;;23.48;18.20;;;;;;;-146.58;100.00;69501.63;4990024;28;20056;-60
2022/08/17 09:47:29;;;;;;;23.10;20.77;;;;;;;-146.58;100.00;69501.63;4991228;28;20018;-61
2022/08/17 09:50:29;;;;;;;21.00;18.85;;;;;;;-146.58;100.00;69501.63;4990634;28;20041;-61
2022/08/17 09:52:57;;;;;;;31.00;20.40;;;;;;;-146.58;100.00;69501.63;4991484;28;20497;-61
2022/08/17 09:55:37;;;;;;;29.30;22.95;;;;;;;-146.58;100.00;69501.63;4990024;28;20120;-60
2022/08/17 09:58:33;;;;;;;28.48;19.58;;;;;;;-146.58;100.00;69501.63;4990623;28;20018;-61
2022/08/17 10:01:07;;;;;;;24.45;21.55;;;;;;;-146.58;100.00;69501.63;4990131;28;20049;-60
2022/08/17 10:04:01;;;;;;;27.35;22.85;;;;;;;-146.58;100.00;69501.63;4991540;28;20447;-60
2022/08/17 10:06:32;;;;;;;24.75;22.05;;;;;;;-146.58;100.00;69501.63;4989292;28;20512;-60
2022/08/17 10:09:12;;;;;;;27.98;22.58;;;;;;;-146.58;100.00;69501.63;4990589;28;20026;-60
2022/08/17 10:12:18;;;;;;;25.40;22.58;;;;;;;-146.58;100.00;69501.63;4991737;28;20034;-60
2022/08/17 10:15:22;;;;;;;24.88;22.27;;;;;;;-146.58;100.00;69501.63;4989692;28;20057;-60
2022/08/17 10:18:09;;;;;;;24.77;20.42;;;;;;;-146.58;100.00;69501.63;4991673;28;20088;-60
2022/08/17 10:26:40;;;;;;;25.85;20.02;;;;;;;-146.58;100.00;69501.63;4990268;28;20053;-61
2022/08/17 10:29:09;;;;;;;191.60;35.65;;;;;;;-146.58;100.00;69501.63;4989881;28;20413;-61
2022/08/17 10:31:41;;;;;;;31.92;18.98;;;;;;;-146.58;100.00;69501.63;4991527;28;20166;-60
2022/08/17 10:34:17;;;;;;;28.00;17.13;;;;;;;-146.58;100.00;69501.63;4990196;28;20033;-60
2022/08/17 10:37:03;;;;;;;34.60;20.25;;;;;;;-146.58;100.00;69501.63;4990933;28;20442;-60
2022/08/17 10:40:06;;;;;;;48.65;18.60;;;;;;;-146.58;100.00;69501.63;4989855;28;20073;-60
2022/08/17 10:42:43;;;;;;;68.43;27.38;;;;;;;-146.58;100.00;69501.63;4988857;28;20044;-60
2022/08/17 10:45:56;;;;;;;20.17;17.17;;;;;;;-146.58;100.00;69501.63;5000197;28;20038;-60
2022/08/17 10:48:28;;;;;;;24.90;18.88;;;;;;;-146.58;100.00;69501.63;4993601;28;20034;-60
2022/08/17 10:51:07;;;;;;;25.95;19.00;;;;;;;-146.58;100.00;69501.63;5008776;28;20165;-60
2022/08/17 10:53:39;;;;;;;17.88;16.13;;;;;;;-146.58;100.00;69501.63;5010538;28;20496;-60
2022/08/17 10:56:10;;;;;;;23.23;17.38;;;;;;;-146.58;100.00;69501.63;5009076;28;20440;-60
2022/08/17 10:58:52;;;;;;;20.80;17.25;;;;;;;-146.58;100.00;69501.63;5010220;28;20080;-60
2022/08/17 11:01:42;;;;;;;24.58;17.80;;;;;;;-146.58;100.00;69501.63;5009428;28;20068;-60
2022/08/17 11:04:16;;;;;;;20.02;17.73;;;;;;;-146.58;100.00;69501.63;4998742;28;20037;-60
2022/08/17 11:07:01;;;;;;;23.48;15.80;;;;;;;-146.58;100.00;69501.63;5010388;28;20033;-60
2022/08/17 11:09:39;;;;;;;23.95;15.82;;;;;;;-146.58;100.00;69501.63;5009234;28;20065;-60
2022/08/17 11:12:31;;;;;;;19.73;15.68;;;;;;;-146.58;100.00;69501.63;5010672;28;20108;-60
2022/08/17 11:15:30;;;;;;;17.33;15.38;;;;;;;-146.58;100.00;69501.63;5000566;28;20177;-59
2022/08/17 11:18:10;;;;;;;18.27;16.38;;;;;;;-146.58;100.00;69501.63;5007379;28;20152;-60
2022/08/17 11:20:54;;;;;;;19.08;17.27;;;;;;;-146.58;100.00;69501.63;5012302;28;20072;-60
2022/08/17 11:23:47;;;;;;;19.75;16.52;;;;;;;-146.58;100.00;69501.63;5014374;28;20018;-60
2022/08/17 11:26:31;;;;;;;21.70;16.85;;;;;;;-146.58;100.00;69501.63;5012720;28;20053;-60
2022/08/17 11:29:01;;;;;;;19.80;17.38;;;;;;;-146.58;100.00;69501.63;5012205;28;20038;-60
2022/08/17 11:31:38;;;;;;;16.45;14.65;;;;;;;-146.58;100.00;69501.63;5013965;28;20025;-60
2022/08/17 11:34:17;;;;;;;18.35;16.45;;;;;;;-146.58;100.00;69501.63;5012526;28;20520;-60
2022/08/17 11:37:03;;;;;;;21.33;18.88;;;;;;;-146.58;100.00;69501.63;5013505;28;20029;-60
2022/08/17 11:39:53;;;;;;;548.08;85.10;;;;;;;-146.58;100.00;69501.63;5012296;28;20048;-60
2022/08/17 11:42:36;;;;;;;397.35;67.60;;;;;;;-146.58;100.00;69501.63;5013765;28;20026;-61
2022/08/17 11:45:26;;;;;;;35.25;18.92;;;;;;;-146.58;100.00;69501.63;4991507;28;20072;-60
2022/08/17 11:53:41;;;;;;;19.13;16.48;;;;;;;-146.58;100.00;69501.63;4993485;28;20046;-60
2022/08/17 11:56:29;;;;;;;18.50;16.52;;;;;;;-146.58;100.00;69501.63;5010791;28;20045;-60
2022/08/17 11:58:54;;;;;;;24.63;14.85;;;;;;;-146.58;100.00;69501.63;5012041;28;20112;-60
2022/08/17 12:01:25;;;;;;;17.77;16.08;;;;;;;-146.58;100.00;69501.63;5013540;28;20482;-60